createdAt,value
2023-09-28T00:01:37.688Z,31.13
2023-09-28T00:04:07.563Z,36.53
2023-09-28T00:06:35.092Z,29.65
2023-09-28T00:09:01.990Z,37.60
2023-09-28T00:11:29.228Z,33.83
2023-09-28T00:13:56.302Z,36.35
2023-09-28T00:16:23.859Z,31.40
2023-09-28T00:18:50.706Z,30.98
2023-09-28T00:21:17.941Z,29.80
2023-09-28T00:23:45.256Z,30.38
2023-09-28T00:26:13.525Z,30.92
2023-09-28T00:28:40.839Z,32.78
2023-09-28T00:31:07.791Z,31.92
2023-09-28T00:33:34.888Z,30.17
2023-09-28T00:36:01.793Z,27.50
2023-09-28T00:38:29.053Z,28.88
2023-09-28T00:40:56.520Z,30.23
2023-09-28T00:43:30.998Z,31.75
2023-09-28T00:45:58.849Z,29.80
2023-09-28T00:48:26.250Z,29.08
2023-09-28T00:50:53.612Z,31.75
2023-09-28T00:53:22.628Z,32.40
2023-09-28T00:55:50.259Z,29.35
2023-09-28T00:58:17.620Z,30.05
2023-09-28T01:00:45.916Z,32.13
2023-09-28T01:03:13.354Z,30.67
2023-09-28T01:05:41.831Z,26.35
2023-09-28T01:08:13.631Z,32.25
2023-09-28T01:10:44.543Z,32.38
2023-09-28T01:13:12.567Z,31.17
2023-09-28T01:15:43.917Z,35.00
2023-09-28T01:18:16.854Z,39.30
2023-09-28T01:23:11.869Z,35.13
2023-09-28T01:25:39.738Z,30.35
2023-09-28T01:28:11.410Z,27.17
2023-09-28T01:30:38.950Z,29.25
2023-09-28T01:33:06.513Z,27.38
2023-09-28T01:35:33.436Z,31.02
2023-09-28T01:38:14.988Z,38.45
2023-09-28T01:40:43.222Z,29.63
2023-09-28T01:43:10.506Z,32.30
2023-09-28T01:45:37.830Z,30.00
2023-09-28T01:48:05.437Z,34.10
2023-09-28T01:50:33.220Z,31.35
2023-09-28T01:53:00.309Z,31.90
2023-09-28T01:55:27.680Z,29.58
2023-09-28T01:57:54.578Z,27.05
2023-09-28T02:00:23.099Z,32.67
2023-09-28T02:02:53.315Z,33.28
2023-09-28T02:05:24.508Z,31.08
2023-09-28T02:07:51.994Z,29.88
2023-09-28T02:10:19.012Z,29.08
2023-09-28T02:12:46.264Z,36.83
2023-09-28T02:15:16.700Z,35.28
2023-09-28T02:17:47.264Z,27.40
2023-09-28T02:20:21.933Z,39.08
2023-09-28T02:22:49.727Z,30.17
2023-09-28T02:25:21.411Z,30.23
2023-09-28T02:27:52.600Z,39.00
2023-09-28T02:30:21.523Z,28.05
2023-09-28T02:32:51.079Z,32.65
2023-09-28T02:35:19.630Z,34.17
2023-09-28T02:37:49.817Z,30.67
2023-09-28T02:40:19.282Z,32.42
2023-09-28T02:42:49.454Z,35.22
2023-09-28T02:45:16.864Z,28.50
2023-09-28T02:47:45.362Z,34.97
2023-09-28T02:50:14.663Z,30.00
2023-09-28T02:52:44.695Z,29.40
2023-09-28T02:55:13.646Z,30.83
2023-09-28T02:57:41.177Z,36.67
2023-09-28T03:00:26.042Z,25.08
2023-09-28T03:02:54.277Z,30.25
2023-09-28T03:05:22.289Z,36.45
2023-09-28T03:07:49.649Z,31.05
2023-09-28T03:10:18.264Z,30.73
2023-09-28T03:12:52.608Z,33.63
2023-09-28T03:15:21.367Z,31.58
2023-09-28T03:17:48.612Z,32.78
2023-09-28T03:20:23.099Z,27.13
2023-09-28T03:22:51.215Z,28.70
2023-09-28T03:25:23.104Z,29.23
2023-09-28T03:27:55.216Z,32.33
2023-09-28T03:30:24.874Z,32.90
2023-09-28T03:32:52.494Z,29.15
2023-09-28T03:35:21.141Z,33.03
2023-09-28T03:37:49.165Z,31.40
2023-09-28T03:40:18.006Z,29.58
2023-09-28T03:42:48.045Z,37.55
2023-09-28T03:45:17.013Z,32.03
2023-09-28T03:47:45.561Z,31.25
2023-09-28T03:50:14.155Z,35.05
2023-09-28T03:52:42.784Z,30.33
2023-09-28T03:55:17.243Z,34.80
2023-09-28T03:57:44.473Z,32.70
2023-09-28T04:00:15.752Z,34.95
2023-09-28T04:02:47.033Z,25.75
2023-09-28T04:05:16.897Z,30.17
2023-09-28T04:07:44.639Z,27.98
2023-09-28T04:10:13.166Z,35.53
2023-09-28T04:12:40.541Z,32.50
2023-09-28T04:15:08.974Z,28.73
2023-09-28T04:17:36.585Z,38.63
2023-09-28T04:20:07.595Z,33.83
2023-09-28T04:22:35.239Z,29.08
2023-09-28T04:25:02.791Z,35.03
2023-09-28T04:27:29.709Z,31.48
2023-09-28T04:29:56.965Z,43.05
2023-09-28T04:32:24.230Z,31.20
2023-09-28T04:34:51.760Z,32.65
2023-09-28T04:37:19.819Z,33.25
2023-09-28T04:39:47.087Z,26.38
2023-09-28T04:42:16.359Z,28.63
2023-09-28T04:44:45.262Z,31.75
2023-09-28T04:47:13.060Z,30.50
2023-09-28T04:49:43.936Z,35.70
2023-09-28T04:52:14.950Z,35.53
2023-09-28T04:54:42.727Z,26.05
2023-09-28T04:57:10.046Z,38.08
2023-09-28T04:59:41.667Z,29.20
2023-09-28T05:02:09.922Z,24.67
2023-09-28T05:04:37.079Z,29.25
2023-09-28T05:07:05.468Z,27.65
2023-09-28T05:09:33.018Z,29.83
2023-09-28T05:12:01.767Z,39.22
2023-09-28T05:14:29.089Z,28.85
2023-09-28T05:16:56.554Z,30.17
2023-09-28T05:19:23.655Z,31.55
2023-09-28T05:21:51.232Z,31.10
2023-09-28T05:24:18.530Z,41.08
2023-09-28T05:26:45.473Z,31.73
2023-09-28T05:29:12.804Z,28.90
2023-09-28T05:31:39.827Z,32.00
2023-09-28T05:34:07.691Z,31.85
2023-09-28T05:36:35.196Z,31.27
2023-09-28T05:39:04.760Z,27.52
2023-09-28T05:41:32.572Z,28.80
2023-09-28T05:43:59.654Z,32.65
2023-09-28T05:46:26.999Z,48.55
2023-09-28T05:48:54.794Z,27.45
2023-09-28T05:51:22.093Z,25.88
2023-09-28T05:53:52.358Z,29.70
2023-09-28T05:56:19.455Z,27.05
2023-09-28T05:58:46.883Z,25.45
2023-09-28T06:01:14.974Z,24.80
2023-09-28T06:03:43.138Z,23.45
2023-09-28T06:06:17.828Z,27.92
2023-09-28T06:08:47.981Z,24.92
2023-09-28T06:11:16.567Z,25.33
2023-09-28T06:16:16.333Z,26.58
2023-09-28T06:18:45.538Z,34.65
2023-09-28T06:21:12.421Z,27.45
2023-09-28T06:23:39.403Z,37.25
2023-09-28T06:26:06.589Z,27.10
2023-09-28T06:28:33.596Z,24.98
2023-09-28T06:31:00.519Z,33.28
2023-09-28T06:33:27.647Z,27.90
2023-09-28T06:35:55.662Z,27.52
2023-09-28T06:38:22.594Z,24.55
2023-09-28T06:40:50.189Z,23.13
2023-09-28T06:43:17.075Z,23.60
2023-09-28T06:45:47.184Z,26.92
2023-09-28T06:48:20.446Z,25.13
2023-09-28T06:50:47.925Z,22.42
2023-09-28T06:53:17.275Z,24.58
2023-09-28T06:55:49.694Z,22.23
2023-09-28T06:58:21.267Z,24.90
2023-09-28T07:00:48.272Z,20.10
2023-09-28T07:03:16.237Z,26.45
2023-09-28T07:05:43.775Z,24.67
2023-09-28T07:08:11.512Z,21.30
2023-09-28T07:10:39.614Z,24.17
2023-09-28T07:13:07.651Z,21.85
2023-09-28T07:15:35.368Z,20.30
2023-09-28T07:18:02.830Z,18.52
2023-09-28T07:20:30.077Z,17.08
2023-09-28T07:22:57.820Z,19.92
2023-09-28T07:25:28.201Z,19.05
2023-09-28T07:27:55.479Z,19.35
2023-09-28T07:30:23.894Z,27.40
2023-09-28T07:32:51.592Z,18.25
2023-09-28T07:35:19.666Z,20.67
2023-09-28T07:37:46.860Z,16.60
2023-09-28T07:40:18.022Z,22.35
2023-09-28T07:45:14.834Z,16.83
2023-09-28T07:47:42.211Z,23.65
2023-09-28T07:50:16.733Z,21.30
2023-09-28T07:52:44.044Z,14.35
2023-09-28T07:55:12.209Z,21.60
2023-09-28T07:57:55.638Z,17.02
2023-09-28T08:00:28.534Z,16.73
2023-09-28T08:02:56.661Z,16.27
2023-09-28T08:05:23.726Z,19.00
2023-09-28T08:08:00.115Z,18.38
2023-09-28T08:10:35.348Z,19.23
2023-09-28T08:13:02.483Z,15.82
2023-09-28T08:15:36.774Z,12.68
2023-09-28T08:18:05.389Z,17.55
2023-09-28T08:20:35.324Z,13.73
2023-09-28T08:23:04.920Z,15.43
2023-09-28T08:25:32.750Z,17.00
2023-09-28T08:28:00.616Z,14.88
2023-09-28T08:30:27.572Z,14.90
2023-09-28T08:32:54.985Z,13.75
2023-09-28T08:35:22.159Z,13.27
2023-09-28T08:37:49.387Z,20.15
2023-09-28T08:40:16.439Z,16.20
2023-09-28T08:42:47.673Z,11.82
2023-09-28T08:45:17.527Z,17.25
2023-09-28T08:47:54.418Z,12.75
2023-09-28T08:50:27.364Z,13.07
2023-09-28T08:52:56.005Z,15.88
2023-09-28T08:55:23.417Z,21.13
2023-09-28T08:57:50.679Z,12.98
2023-09-28T09:00:24.041Z,10.43
2023-09-28T09:02:53.083Z,13.32
2023-09-28T09:05:21.564Z,22.08
2023-09-28T09:07:50.956Z,14.35
2023-09-28T09:10:21.831Z,15.52
2023-09-28T09:12:49.040Z,12.93
2023-09-28T09:15:16.043Z,9.43
2023-09-28T09:17:43.244Z,15.18
2023-09-28T09:20:11.322Z,10.65
2023-09-28T09:22:53.349Z,17.15
2023-09-28T09:25:26.065Z,11.02
2023-09-28T09:27:53.649Z,10.55
2023-09-28T09:30:22.134Z,13.40
2023-09-28T09:32:49.702Z,15.20
2023-09-28T09:35:17.880Z,11.57
2023-09-28T09:37:52.177Z,9.48
2023-09-28T09:40:19.592Z,11.07
2023-09-28T09:42:46.485Z,14.90
2023-09-28T09:45:13.610Z,8.65
2023-09-28T09:47:49.037Z,13.10
2023-09-28T09:50:17.803Z,9.52
2023-09-28T09:52:48.672Z,12.20
2023-09-28T09:55:16.106Z,16.55
2023-09-28T09:57:43.902Z,14.45
2023-09-28T10:00:17.210Z,9.02
2023-09-28T10:02:46.714Z,11.98
2023-09-28T10:05:15.220Z,12.63
2023-09-28T10:07:47.968Z,12.20
2023-09-28T10:10:16.557Z,11.30
2023-09-28T10:12:43.904Z,12.88
2023-09-28T10:15:12.022Z,13.40
2023-09-28T10:17:39.654Z,12.02
2023-09-28T10:20:09.879Z,12.20
2023-09-28T10:22:41.357Z,12.57
2023-09-28T10:25:08.629Z,10.98
2023-09-28T10:27:37.794Z,10.57
2023-09-28T10:30:22.403Z,9.70
2023-09-28T10:32:53.360Z,10.73
2023-09-28T10:35:28.576Z,12.27
2023-09-28T10:38:21.567Z,16.60
2023-09-28T10:40:55.742Z,15.27
2023-09-28T10:43:34.975Z,13.10
2023-09-28T10:46:06.563Z,13.20
2023-09-28T10:48:40.975Z,13.32
2023-09-28T10:51:16.844Z,9.80
2023-09-28T10:53:45.214Z,13.25
2023-09-28T10:56:13.028Z,9.70
2023-09-28T10:58:52.020Z,12.88
2023-09-28T11:01:18.955Z,11.93
2023-09-28T11:03:47.422Z,13.63
2023-09-28T11:06:14.923Z,16.67
2023-09-28T11:08:43.752Z,11.15
2023-09-28T11:11:10.947Z,13.93
2023-09-28T11:13:38.856Z,11.05
2023-09-28T11:16:06.027Z,14.75
2023-09-28T11:18:33.066Z,13.93
2023-09-28T11:21:01.077Z,16.52
2023-09-28T11:23:29.264Z,9.20
2023-09-28T11:25:57.063Z,13.02
2023-09-28T11:28:24.758Z,10.15
2023-09-28T11:31:13.196Z,13.65
2023-09-28T11:33:41.271Z,13.60
2023-09-28T11:36:15.532Z,11.93
2023-09-28T11:38:42.810Z,12.80
2023-09-28T11:41:09.854Z,15.95
2023-09-28T11:43:54.200Z,11.77
2023-09-28T11:46:25.659Z,13.15
2023-09-28T11:49:11.342Z,13.15
2023-09-28T11:51:41.709Z,8.85
2023-09-28T11:54:10.099Z,11.85
2023-09-28T11:56:37.774Z,14.63
2023-09-28T11:59:05.415Z,12.57
2023-09-28T12:01:33.877Z,10.25
2023-09-28T12:04:01.243Z,11.35
2023-09-28T12:06:28.809Z,14.80
2023-09-28T12:08:56.785Z,12.45
2023-09-28T12:11:23.864Z,13.85
2023-09-28T12:13:51.203Z,14.48
2023-09-28T12:16:18.192Z,15.20
2023-09-28T12:18:45.279Z,13.18
2023-09-28T12:21:12.920Z,17.33
2023-09-28T12:23:40.377Z,12.70
2023-09-28T12:26:07.691Z,13.43
2023-09-28T12:28:34.682Z,17.05
2023-09-28T12:31:01.825Z,10.30
2023-09-28T12:33:29.289Z,12.80
2023-09-28T12:35:57.298Z,15.25
2023-09-28T12:38:24.961Z,12.30
2023-09-28T12:40:52.333Z,9.65
2023-09-28T12:43:19.330Z,10.40
2023-09-28T12:45:46.333Z,10.90
2023-09-28T12:48:18.526Z,14.52
2023-09-28T12:50:48.938Z,9.07
2023-09-28T12:53:18.545Z,11.93
2023-09-28T12:55:45.957Z,12.38
2023-09-28T12:58:13.470Z,16.10
2023-09-28T13:00:40.706Z,12.65
2023-09-28T13:03:09.494Z,12.73
2023-09-28T13:05:41.461Z,17.30
2023-09-28T13:08:14.800Z,10.20
2023-09-28T13:10:42.399Z,11.52
2023-09-28T13:13:09.486Z,9.95
2023-09-28T13:15:36.585Z,11.73
2023-09-28T13:18:08.404Z,13.40
2023-09-28T13:20:40.432Z,9.40
2023-09-28T13:23:08.128Z,13.85
2023-09-28T13:25:35.439Z,16.88
2023-09-28T13:28:02.835Z,11.40
2023-09-28T13:30:31.180Z,8.50
2023-09-28T13:32:58.661Z,14.02
2023-09-28T13:35:26.451Z,10.90
2023-09-28T13:37:53.625Z,10.75
2023-09-28T13:40:27.377Z,15.57
2023-09-28T13:42:56.355Z,11.40
2023-09-28T13:45:23.585Z,17.23
2023-09-28T13:47:51.041Z,11.40
2023-09-28T13:50:18.558Z,11.32
2023-09-28T13:52:51.131Z,10.10
2023-09-28T13:55:21.232Z,14.05
2023-09-28T13:57:48.572Z,11.73
2023-09-28T14:00:28.358Z,16.27
2023-09-28T14:03:00.567Z,11.90
2023-09-28T14:05:28.359Z,9.32
2023-09-28T14:07:57.504Z,8.32
2023-09-28T14:10:25.576Z,12.77
2023-09-28T14:12:52.882Z,7.60
2023-09-28T14:15:20.239Z,10.35
2023-09-28T14:17:49.254Z,9.57
2023-09-28T14:20:17.177Z,12.23
2023-09-28T14:22:49.936Z,11.93
2023-09-28T14:27:46.781Z,11.63
2023-09-28T14:30:18.075Z,11.05
2023-09-28T14:32:46.178Z,17.02
2023-09-28T14:35:13.846Z,11.15
2023-09-28T14:37:40.993Z,10.65
2023-09-28T14:40:16.767Z,11.93
2023-09-28T14:42:45.872Z,11.20
2023-09-28T14:45:14.562Z,12.70
2023-09-28T14:47:42.796Z,15.75
2023-09-28T14:50:11.981Z,10.88
2023-09-28T14:52:40.841Z,10.50
2023-09-28T14:55:09.174Z,11.40
2023-09-28T14:57:36.581Z,7.38
2023-09-28T15:00:13.524Z,15.43
2023-09-28T15:02:41.657Z,8.55
2023-09-28T15:05:10.959Z,10.85
2023-09-28T15:07:38.446Z,15.82
2023-09-28T15:10:06.161Z,12.40
2023-09-28T15:12:33.712Z,14.77
2023-09-28T15:15:01.568Z,16.67
2023-09-28T15:17:29.479Z,15.13
2023-09-28T15:19:57.076Z,13.50
2023-09-28T15:22:24.413Z,13.80
2023-09-28T15:24:52.409Z,10.55
2023-09-28T15:27:19.762Z,11.63
2023-09-28T15:29:46.689Z,14.63
2023-09-28T15:32:15.220Z,12.35
2023-09-28T15:34:42.769Z,17.05
2023-09-28T15:37:10.722Z,10.65
2023-09-28T15:39:38.211Z,16.23
2023-09-28T15:42:07.923Z,11.88
2023-09-28T15:44:35.843Z,15.20
2023-09-28T15:47:03.479Z,20.63
2023-09-28T15:49:30.937Z,8.45
2023-09-28T15:51:58.336Z,13.65
2023-09-28T15:54:25.307Z,13.45
2023-09-28T15:56:52.274Z,14.45
2023-09-28T15:59:19.300Z,13.73
2023-09-28T16:01:48.963Z,11.98
2023-09-28T16:04:16.510Z,12.18
2023-09-28T16:06:43.556Z,17.60
2023-09-28T16:09:10.947Z,11.77
2023-09-28T16:11:38.031Z,15.00
2023-09-28T16:14:05.309Z,16.65
2023-09-28T16:16:32.576Z,15.55
2023-09-28T16:18:59.575Z,16.15
2023-09-28T16:21:26.452Z,11.65
2023-09-28T16:23:56.081Z,11.02
2023-09-28T16:26:25.003Z,15.07
2023-09-28T16:28:52.579Z,12.57
2023-09-28T16:31:19.520Z,17.33
2023-09-28T16:33:48.188Z,15.93
2023-09-28T16:36:15.019Z,12.98
2023-09-28T16:38:42.323Z,15.60
2023-09-28T16:41:09.449Z,15.75
2023-09-28T16:43:36.403Z,20.95
2023-09-28T16:46:04.190Z,14.95
2023-09-28T16:48:31.505Z,20.85
2023-09-28T16:50:59.027Z,15.40
2023-09-28T16:53:26.017Z,16.67
2023-09-28T16:55:54.116Z,20.95
2023-09-28T16:58:22.419Z,16.85
2023-09-28T17:00:49.524Z,18.00
2023-09-28T17:03:16.589Z,18.17
2023-09-28T17:05:43.756Z,21.95
2023-09-28T17:08:10.747Z,18.48
2023-09-28T17:10:37.705Z,15.98
2023-09-28T17:13:04.798Z,17.60
2023-09-28T17:15:32.057Z,20.65
2023-09-28T17:18:10.073Z,16.52
2023-09-28T17:20:45.908Z,15.20
2023-09-28T17:23:13.520Z,26.65
2023-09-28T17:25:40.465Z,23.85
2023-09-28T17:28:07.758Z,18.92
2023-09-28T17:30:35.211Z,18.77
2023-09-28T17:33:02.590Z,22.25
2023-09-28T17:35:31.404Z,25.08
2023-09-28T17:37:58.789Z,21.35
2023-09-28T17:40:26.385Z,23.90
2023-09-28T17:42:53.772Z,28.17
2023-09-28T17:45:21.074Z,25.17
2023-09-28T17:47:50.551Z,75.07
2023-09-28T17:50:18.200Z,30.73
2023-09-28T17:52:45.107Z,25.58
2023-09-28T17:55:12.425Z,32.55
2023-09-28T17:57:40.578Z,30.65
2023-09-28T18:00:09.650Z,36.33
2023-09-28T18:02:37.061Z,30.10
2023-09-28T18:05:04.533Z,38.22
2023-09-28T18:07:31.807Z,34.97
2023-09-28T18:09:59.115Z,39.58
2023-09-28T18:12:26.471Z,35.78
2023-09-28T18:14:53.532Z,33.22
2023-09-28T18:17:20.850Z,35.58
2023-09-28T18:19:48.897Z,45.08
2023-09-28T18:22:16.165Z,39.35
2023-09-28T18:24:43.847Z,35.90
2023-09-28T18:27:11.172Z,43.00
2023-09-28T18:29:38.561Z,39.42
2023-09-28T18:32:05.990Z,49.83
2023-09-28T18:34:36.693Z,39.72
2023-09-28T18:37:03.629Z,40.20
2023-09-28T18:39:30.490Z,39.97
2023-09-28T18:41:58.274Z,38.92
2023-09-28T18:44:25.143Z,41.40
2023-09-28T18:46:52.186Z,47.35
2023-09-28T18:49:22.093Z,40.22
2023-09-28T18:51:50.269Z,37.45
2023-09-28T18:54:17.214Z,35.05
2023-09-28T18:56:44.657Z,40.17
2023-09-28T18:59:12.130Z,46.42
2023-09-28T19:01:39.952Z,42.00
2023-09-28T19:04:07.979Z,39.40
2023-09-28T19:06:35.341Z,47.58
2023-09-28T19:09:02.638Z,31.98
2023-09-28T19:11:29.938Z,39.45
2023-09-28T19:13:57.011Z,38.08
2023-09-28T19:16:24.421Z,38.00
2023-09-28T19:18:51.715Z,43.20
2023-09-28T19:21:19.014Z,45.15
2023-09-28T19:23:45.944Z,89.40
2023-09-28T19:26:14.239Z,46.50
2023-09-28T19:28:41.466Z,37.97
2023-09-28T19:31:08.378Z,39.80
2023-09-28T19:33:35.709Z,37.90
2023-09-28T19:36:09.730Z,38.03
2023-09-28T19:38:37.489Z,40.55
2023-09-28T19:41:04.817Z,38.50
2023-09-28T19:43:32.458Z,37.30
2023-09-28T19:46:00.054Z,32.13
2023-09-28T19:48:27.553Z,28.73
2023-09-28T19:51:01.788Z,37.70
2023-09-28T19:53:29.057Z,42.10
2023-09-28T19:55:56.381Z,36.35
2023-09-28T19:58:25.155Z,31.02
2023-09-28T20:00:54.475Z,38.88
2023-09-28T20:03:21.776Z,35.63
2023-09-28T20:05:49.258Z,40.95
2023-09-28T20:08:16.251Z,33.05
2023-09-28T20:10:43.564Z,30.05
2023-09-28T20:13:10.510Z,30.15
2023-09-28T20:15:38.428Z,37.15
2023-09-28T20:18:06.492Z,36.20
2023-09-28T20:20:33.956Z,156.55
2023-09-28T20:23:01.215Z,55.10
2023-09-28T20:25:28.464Z,29.77
2023-09-28T20:27:55.348Z,32.63
2023-09-28T20:30:22.692Z,29.80
2023-09-28T20:32:50.169Z,25.30
2023-09-28T20:35:17.573Z,26.33
2023-09-28T20:37:44.729Z,31.58
2023-09-28T20:40:12.284Z,27.30
2023-09-28T20:42:39.413Z,28.38
2023-09-28T20:45:06.907Z,31.40
2023-09-28T20:47:36.433Z,31.38
2023-09-28T20:50:05.473Z,27.20
2023-09-28T20:52:32.653Z,25.98
2023-09-28T20:54:59.927Z,21.10
2023-09-28T20:57:27.308Z,25.42
2023-09-28T20:59:57.405Z,22.05
2023-09-28T21:02:24.901Z,26.17
2023-09-28T21:04:52.390Z,26.10
2023-09-28T21:07:19.388Z,26.70
2023-09-28T21:09:47.038Z,24.27
2023-09-28T21:12:14.766Z,27.25
2023-09-28T21:14:42.233Z,28.25
2023-09-28T21:17:09.466Z,28.45
2023-09-28T21:19:36.814Z,25.92
2023-09-28T21:22:03.643Z,30.98
2023-09-28T21:24:30.872Z,27.35
2023-09-28T21:26:58.149Z,24.00
2023-09-28T21:29:25.051Z,25.83
2023-09-28T21:31:52.527Z,23.55
2023-09-28T21:34:19.828Z,25.63
2023-09-28T21:36:47.460Z,29.48
2023-09-28T21:39:14.317Z,28.10
2023-09-28T21:41:41.660Z,26.95
2023-09-28T21:44:09.048Z,27.63
2023-09-28T21:46:35.882Z,20.25
2023-09-28T21:49:03.127Z,23.38
2023-09-28T21:51:30.742Z,22.95
2023-09-28T21:53:58.010Z,22.92
2023-09-28T21:56:25.914Z,24.90
2023-09-28T21:58:57.045Z,25.77
2023-09-28T22:01:24.315Z,25.33
2023-09-28T22:03:51.507Z,28.77
2023-09-28T22:06:18.871Z,32.30
2023-09-28T22:08:46.177Z,22.83
2023-09-28T22:11:13.081Z,22.42
2023-09-28T22:13:40.061Z,22.02
2023-09-28T22:16:07.076Z,24.10
2023-09-28T22:18:34.542Z,22.58
2023-09-28T22:21:01.803Z,23.98
2023-09-28T22:23:28.837Z,23.55
2023-09-28T22:25:56.307Z,22.80
2023-09-28T22:28:23.598Z,21.55
2023-09-28T22:30:50.475Z,23.15
2023-09-28T22:33:17.934Z,22.58
2023-09-28T22:35:45.438Z,24.63
2023-09-28T22:38:12.873Z,22.98
2023-09-28T22:40:40.140Z,19.98
2023-09-28T22:43:07.095Z,21.92
2023-09-28T22:45:34.291Z,22.48
2023-09-28T22:48:01.970Z,27.85
2023-09-28T22:50:29.578Z,20.05
2023-09-28T22:52:56.868Z,18.45
2023-09-28T22:55:24.109Z,22.30
2023-09-28T22:57:51.189Z,22.67
2023-09-28T23:00:19.203Z,21.55
2023-09-28T23:02:46.700Z,19.40
2023-09-28T23:05:14.082Z,25.30
2023-09-28T23:07:42.552Z,20.20
2023-09-28T23:10:13.908Z,22.92
2023-09-28T23:12:42.175Z,21.88
2023-09-28T23:15:13.379Z,24.48
2023-09-28T23:17:41.433Z,23.00
2023-09-28T23:20:11.332Z,35.47
2023-09-28T23:22:44.634Z,22.70
2023-09-28T23:25:13.606Z,24.08
2023-09-28T23:27:45.060Z,21.25
2023-09-28T23:30:18.719Z,21.70
2023-09-28T23:32:47.793Z,20.48
2023-09-28T23:35:19.810Z,20.20
2023-09-28T23:37:48.950Z,22.67
2023-09-28T23:40:22.440Z,19.58
2023-09-28T23:42:50.665Z,18.88
2023-09-28T23:45:18.237Z,18.52
2023-09-28T23:47:46.020Z,22.63
2023-09-28T23:50:13.645Z,24.27
2023-09-28T23:52:46.919Z,20.17
2023-09-28T23:55:16.313Z,24.30
2023-09-28T23:57:45.066Z,19.15
